Time;durP1;ratioP1;P1;durP2;ratioP2;P2;SDS_P1;SDS_P2;PMS_P1;PMS_P2;Temp;Humidity;BMP_temperature;BMP_pressure;BME280_temperature;BME280_humidity;BME280_pressure;Samples;Min_cycle;Max_cycle;Signal;HPM_P1;HPM_P2
2022/05/22 00:00:19;;;;;;;3.22;2.13;;;512.90;2380.80;;;;;;5014516;28;20430;-54
2022/05/22 00:02:46;;;;;;;3.78;2.00;;;512.90;2380.80;;;;;;5014074;28;20030;-54
2022/05/22 00:05:16;;;;;;;3.97;2.70;;;512.90;2380.80;;;;;;5014346;28;20029;-54
2022/05/22 00:07:42;;;;;;;4.72;2.42;;;512.90;2380.80;;;;;;5013700;28;20504;-55
2022/05/22 00:10:09;;;;;;;4.75;2.35;;;512.90;2380.80;;;;;;5014039;28;20033;-54
2022/05/22 00:12:34;;;;;;;4.20;2.00;;;512.80;2380.80;;;;;;5013749;28;20030;-55
2022/05/22 00:15:01;;;;;;;4.05;2.10;;;512.60;2380.80;;;;;;5013875;28;20088;-54
2022/05/22 00:17:27;;;;;;;2.90;1.92;;;512.40;2380.80;;;;;;5013984;28;20052;-55
2022/05/22 00:19:52;;;;;;;3.38;2.20;;;512.50;2380.80;;;;;;5013672;28;20054;-55
2022/05/22 00:22:18;;;;;;;3.63;2.38;;;512.60;2380.80;;;;;;5014232;28;20026;-54
2022/05/22 00:24:44;;;;;;;2.70;1.95;;;512.70;2380.80;;;;;;5013381;28;20403;-54
2022/05/22 00:27:10;;;;;;;4.95;2.58;;;512.70;2380.80;;;;;;5013745;28;20504;-54
2022/05/22 00:29:36;;;;;;;2.53;2.03;;;512.70;2380.80;;;;;;5013685;28;20030;-54
2022/05/22 00:32:03;;;;;;;2.60;1.88;;;512.80;2380.80;;;;;;5013713;28;20029;-55
2022/05/22 00:34:29;;;;;;;2.75;1.90;;;512.90;2380.80;;;;;;5013537;28;20038;-54
2022/05/22 00:36:55;;;;;;;5.80;2.20;;;512.80;2380.80;;;;;;5013431;28;20025;-54
2022/05/22 00:39:20;;;;;;;4.15;2.08;;;512.90;2380.80;;;;;;5013897;28;20026;-55
2022/05/22 00:41:53;;;;;;;3.22;2.03;;;512.90;2380.80;;;;;;5013482;28;20044;-55
2022/05/22 00:44:19;;;;;;;3.50;2.03;;;512.70;2380.80;;;;;;5013571;28;20084;-54
2022/05/22 00:46:45;;;;;;;4.00;2.13;;;512.60;2380.80;;;;;;5013364;28;20030;-55
2022/05/22 00:49:21;;;;;;;5.03;1.95;;;512.30;2380.80;;;;;;5013363;28;20030;-54
2022/05/22 00:51:46;;;;;;;4.28;2.42;;;512.50;2380.80;;;;;;5013345;28;20037;-54
2022/05/22 00:54:24;;;;;;;4.95;2.50;;;512.60;2380.80;;;;;;5012879;28;20038;-55
2022/05/22 00:57:00;;;;;;;3.60;2.45;;;512.60;2380.80;;;;;;5013403;28;20022;-54
2022/05/22 00:59:31;;;;;;;4.07;2.42;;;512.70;2380.80;;;;;;5012051;28;20029;-55
2022/05/22 01:01:59;;;;;;;5.75;2.55;;;512.50;2380.80;;;;;;5013186;28;20033;-54
2022/05/22 01:04:28;;;;;;;5.30;2.28;;;512.20;2380.80;;;;;;5013050;28;20464;-54
2022/05/22 01:06:54;;;;;;;3.42;2.20;;;512.00;2380.80;;;;;;5012949;28;20467;-55
2022/05/22 01:09:21;;;;;;;2.90;2.03;;;487.30;2380.80;;;;;;5013083;28;20102;-54
2022/05/22 01:11:50;;;;;;;2.67;1.80;;;487.30;2380.80;;;;;;5012803;28;20435;-54
2022/05/22 01:14:21;;;;;;;2.72;1.60;;;487.20;2380.80;;;;;;5012742;28;20409;-54
2022/05/22 01:16:49;;;;;;;3.75;1.95;;;487.20;2380.80;;;;;;5012931;28;20113;-54
2022/05/22 01:19:17;;;;;;;3.22;2.03;;;487.20;2380.80;;;;;;5012800;28;20476;-54
2022/05/22 01:22:12;;;;;;;6.05;2.47;;;487.20;2380.80;;;;;;5012652;28;20030;-54
2022/05/22 01:24:39;;;;;;;3.72;1.70;;;487.20;2380.80;;;;;;5010074;28;20392;-54
2022/05/22 01:27:11;;;;;;;3.40;1.63;;;487.10;2380.80;;;;;;5012297;28;20041;-55
2022/05/22 01:29:37;;;;;;;3.47;1.95;;;487.30;2380.80;;;;;;5012442;28;20053;-55
2022/05/22 01:32:04;;;;;;;2.80;1.80;;;487.30;2380.80;;;;;;5012628;28;20076;-55
2022/05/22 01:34:30;;;;;;;2.63;1.80;;;512.10;2380.80;;;;;;5012534;28;20042;-54
2022/05/22 01:36:56;;;;;;;2.92;2.05;;;512.20;2380.80;;;;;;5012357;28;20052;-54
2022/05/22 01:39:21;;;;;;;3.17;2.03;;;512.30;2380.80;;;;;;5012503;28;20025;-54
2022/05/22 01:41:47;;;;;;;2.83;1.88;;;512.40;2380.80;;;;;;5012518;28;20357;-54
2022/05/22 01:44:13;;;;;;;2.63;1.80;;;512.40;2380.80;;;;;;5012109;28;20025;-55
2022/05/22 01:46:39;;;;;;;3.80;2.60;;;512.60;2380.80;;;;;;5012368;28;20022;-54
2022/05/22 01:49:05;;;;;;;3.67;2.30;;;512.70;2380.80;;;;;;5012340;28;20026;-55
2022/05/22 01:51:37;;;;;;;3.70;2.22;;;512.80;2380.80;;;;;;5012478;28;20396;-55
2022/05/22 01:54:04;;;;;;;4.43;2.45;;;512.80;2380.80;;;;;;5011843;28;20038;-55
2022/05/22 01:56:31;;;;;;;3.28;2.08;;;512.90;2380.80;;;;;;5011971;28;20138;-54
2022/05/22 01:58:57;;;;;;;4.43;2.25;;;512.90;2304.00;;;;;;5011967;28;20037;-54
2022/05/22 02:01:23;;;;;;;3.65;1.98;;;512.90;2329.60;;;;;;5011816;28;20026;-56
2022/05/22 02:03:48;;;;;;;3.63;1.90;;;512.90;2252.80;;;;;;5012184;28;20114;-54
2022/05/22 02:06:14;;;;;;;4.10;1.85;;;537.60;2380.80;;;;;;5011814;28;20353;-54
2022/05/22 02:08:42;;;;;;;2.92;2.03;;;537.60;2380.80;;;;;;5011898;28;20026;-54
2022/05/22 02:11:08;;;;;;;4.15;1.98;;;537.60;2406.40;;;;;;5011749;28;20018;-54
2022/05/22 02:13:44;;;;;;;3.13;1.70;;;512.80;2380.80;;;;;;5011526;28;20038;-54
2022/05/22 02:16:10;;;;;;;4.90;2.20;;;512.70;2380.80;;;;;;5011631;28;20026;-53
2022/05/22 02:18:36;;;;;;;4.70;2.40;;;512.70;2380.80;;;;;;5011603;28;20080;-54
2022/05/22 02:21:02;;;;;;;3.20;1.70;;;512.70;2380.80;;;;;;5011695;28;20026;-53
2022/05/22 02:23:27;;;;;;;3.88;2.70;;;512.80;2380.80;;;;;;5011714;28;20060;-54
2022/05/22 02:25:55;;;;;;;7.60;1.98;;;512.80;2380.80;;;;;;5011244;28;20061;-54
2022/05/22 02:28:23;;;;;;;3.15;2.35;;;512.70;2380.80;;;;;;5011879;28;20361;-55
2022/05/22 02:30:55;;;;;;;3.08;2.13;;;512.70;2380.80;;;;;;5011630;28;20030;-54
2022/05/22 02:33:21;;;;;;;3.03;2.10;;;512.80;2380.80;;;;;;5011676;28;20037;-54
2022/05/22 02:35:47;;;;;;;3.20;2.10;;;512.70;2380.80;;;;;;5011439;28;20488;-54
2022/05/22 02:38:14;;;;;;;5.00;2.45;;;512.50;2380.80;;;;;;5011763;28;20105;-54
2022/05/22 02:40:40;;;;;;;3.35;2.35;;;512.40;2380.80;;;;;;5011308;28;20360;-54
2022/05/22 02:43:06;;;;;;;3.92;2.15;;;512.50;2380.80;;;;;;5011378;28;20018;-54
2022/05/22 02:45:35;;;;;;;3.13;1.92;;;512.40;2380.80;;;;;;5011430;28;20474;-53
2022/05/22 02:48:01;;;;;;;3.85;2.80;;;512.40;2380.80;;;;;;5011153;28;20065;-53
2022/05/22 02:50:29;;;;;;;3.72;2.60;;;512.40;2380.80;;;;;;5010920;28;20459;-53
2022/05/22 02:52:55;;;;;;;3.25;2.15;;;512.40;2380.80;;;;;;5010745;28;20030;-55
2022/05/22 02:55:21;;;;;;;3.20;2.00;;;512.20;2380.80;;;;;;5011055;28;20022;-54
2022/05/22 02:57:47;;;;;;;3.20;1.95;;;512.20;2380.80;;;;;;5011065;28;20037;-54
2022/05/22 03:00:17;;;;;;;4.05;2.38;;;512.20;2380.80;;;;;;5010914;28;20057;-55
2022/05/22 03:02:43;;;;;;;3.47;2.00;;;512.20;2380.80;;;;;;5010996;28;20053;-56
2022/05/22 03:05:09;;;;;;;3.28;1.92;;;512.20;2380.80;;;;;;5010880;28;20480;-54
2022/05/22 03:07:37;;;;;;;3.88;2.35;;;512.20;2380.80;;;;;;5010531;28;20474;-55
2022/05/22 03:10:04;;;;;;;3.28;2.08;;;512.10;2380.80;;;;;;5010596;28;20033;-56
2022/05/22 03:12:30;;;;;;;3.35;2.25;;;512.00;2380.80;;;;;;5010678;28;20026;-54
2022/05/22 03:14:58;;;;;;;3.65;2.08;;;487.20;2380.80;;;;;;5010484;28;20033;-55
2022/05/22 03:17:25;;;;;;;3.53;2.13;;;487.00;2380.80;;;;;;5010578;28;20106;-55
2022/05/22 03:19:51;;;;;;;3.28;2.10;;;487.10;2380.80;;;;;;5010642;28;20026;-54
2022/05/22 03:22:17;;;;;;;3.97;2.13;;;487.20;2380.80;;;;;;5010270;28;20058;-54
2022/05/22 03:24:43;;;;;;;3.35;2.05;;;487.20;2380.80;;;;;;5010280;28;20042;-54
2022/05/22 03:27:12;;;;;;;3.05;1.95;;;487.20;2380.80;;;;;;5010480;28;20030;-54
2022/05/22 03:29:39;;;;;;;3.17;2.05;;;487.30;2380.80;;;;;;5010621;28;20042;-54
2022/05/22 03:32:06;;;;;;;3.67;2.38;;;487.30;2380.80;;;;;;5010381;28;20030;-54
2022/05/22 03:34:32;;;;;;;4.60;2.47;;;487.20;2380.80;;;;;;5010658;28;20388;-53
2022/05/22 03:36:58;;;;;;;4.32;1.75;;;487.10;2380.80;;;;;;5010723;28;20028;-53
2022/05/22 03:39:24;;;;;;;3.17;1.95;;;487.10;2380.80;;;;;;5010223;28;20022;-54
2022/05/22 03:41:50;;;;;;;3.97;2.53;;;487.20;2380.80;;;;;;5010470;28;20472;-54
2022/05/22 03:44:16;;;;;;;4.05;2.35;;;487.10;2380.80;;;;;;5010350;28;20035;-54
2022/05/22 03:46:42;;;;;;;3.13;1.92;;;487.00;2380.80;;;;;;5010377;28;20034;-54
2022/05/22 03:49:08;;;;;;;3.80;2.30;;;487.00;2380.80;;;;;;5010469;28;20033;-53
2022/05/22 03:51:34;;;;;;;5.78;2.13;;;487.00;2380.80;;;;;;5010251;28;20026;-53
2022/05/22 03:54:00;;;;;;;3.88;2.35;;;487.00;2380.80;;;;;;5010170;28;20484;-54
2022/05/22 03:56:26;;;;;;;4.25;2.60;;;487.00;2380.80;;;;;;5009992;28;20113;-55
2022/05/22 03:58:52;;;;;;;3.80;2.40;;;486.70;2380.80;;;;;;5010055;28;20026;-55
2022/05/22 04:01:18;;;;;;;3.53;2.00;;;461.70;2380.80;;;;;;5010408;28;20101;-55
2022/05/22 04:03:44;;;;;;;2.63;1.70;;;461.50;2380.80;;;;;;5010013;28;20507;-54
2022/05/22 04:06:11;;;;;;;3.13;2.05;;;461.50;2380.80;;;;;;5010273;28;20030;-54
2022/05/22 04:08:38;;;;;;;3.70;2.50;;;461.40;2380.80;;;;;;5009845;28;20165;-54
2022/05/22 04:11:18;;;;;;;4.10;2.22;;;461.40;2380.80;;;;;;5010128;28;20464;-54
2022/05/22 04:13:44;;;;;;;4.82;2.33;;;461.20;2380.80;;;;;;5009883;28;20073;-55
2022/05/22 04:16:10;;;;;;;4.22;2.45;;;461.10;2380.80;;;;;;5010139;28;20476;-54
2022/05/22 04:18:36;;;;;;;3.40;2.35;;;461.10;2380.80;;;;;;5009884;28;20045;-54
2022/05/22 04:21:03;;;;;;;4.25;2.65;;;461.10;2380.80;;;;;;5010154;28;20021;-54
2022/05/22 04:26:14;;;;;;;3.28;2.30;;;461.10;2380.80;;;;;;5009723;28;20060;-55
2022/05/22 04:28:40;;;;;;;4.25;2.20;;;461.30;2380.80;;;;;;5009955;28;20022;-55
2022/05/22 04:31:06;;;;;;;3.83;2.28;;;461.40;2380.80;;;;;;5009858;28;20025;-54
2022/05/22 04:33:32;;;;;;;3.88;2.20;;;461.50;2380.80;;;;;;4992622;28;20033;-54
2022/05/22 04:35:59;;;;;;;3.95;2.70;;;461.50;2380.80;;;;;;5013431;28;20022;-54
2022/05/22 04:38:25;;;;;;;4.85;2.67;;;461.60;2380.80;;;;;;5013830;28;20029;-54
2022/05/22 04:41:01;;;;;;;5.25;2.90;;;461.60;2380.80;;;;;;5013711;28;20021;-54
2022/05/22 04:43:29;;;;;;;6.22;3.20;;;461.60;2380.80;;;;;;5013598;28;20034;-54
2022/05/22 04:45:55;;;;;;;6.75;3.55;;;461.60;2380.80;;;;;;5013394;28;20092;-54
2022/05/22 04:48:23;;;;;;;7.45;3.38;;;461.70;2380.80;;;;;;5013351;28;20026;-54
2022/05/22 04:50:50;;;;;;;5.15;3.28;;;486.40;2380.80;;;;;;5013532;28;20036;-53
2022/05/22 04:53:19;;;;;;;4.53;2.90;;;486.60;2380.80;;;;;;5013024;28;20033;-54
2022/05/22 04:55:44;;;;;;;3.78;2.35;;;486.70;2380.80;;;;;;5013348;28;20033;-55
2022/05/22 04:58:12;;;;;;;7.68;2.85;;;486.60;2380.80;;;;;;5013150;28;20487;-53
2022/05/22 05:00:38;;;;;;;4.43;2.88;;;486.70;2380.80;;;;;;5013199;28;20427;-54
2022/05/22 05:03:04;;;;;;;4.70;2.47;;;486.80;2380.80;;;;;;5012924;28;20025;-54
2022/05/22 05:05:30;;;;;;;4.93;2.80;;;486.80;2380.80;;;;;;5013050;28;20029;-54
2022/05/22 05:07:56;;;;;;;4.07;2.53;;;487.00;2380.80;;;;;;5013006;28;20404;-54
2022/05/22 05:10:22;;;;;;;4.05;2.50;;;486.90;2380.80;;;;;;5013087;28;20025;-54
2022/05/22 05:12:48;;;;;;;4.47;2.88;;;487.00;2380.80;;;;;;5012620;28;20046;-53
2022/05/22 05:15:17;;;;;;;5.95;2.65;;;487.10;2380.80;;;;;;5012712;28;20080;-55
2022/05/22 05:17:44;;;;;;;4.47;2.50;;;487.30;2380.80;;;;;;5012717;28;20057;-55
2022/05/22 05:20:12;;;;;;;3.78;2.30;;;487.10;2380.80;;;;;;5012631;28;20026;-53
2022/05/22 05:22:38;;;;;;;3.63;2.28;;;487.00;2380.80;;;;;;5012856;28;20030;-54
2022/05/22 05:25:05;;;;;;;4.18;2.65;;;486.90;2380.80;;;;;;5012432;28;20053;-55
2022/05/22 05:27:31;;;;;;;5.95;2.80;;;487.00;2380.80;;;;;;5012849;28;20030;-54
2022/05/22 05:29:57;;;;;;;6.95;2.85;;;487.10;2380.80;;;;;;5012448;28;20360;-54
2022/05/22 05:32:23;;;;;;;4.85;2.90;;;487.30;2380.80;;;;;;5012583;28;20033;-54
2022/05/22 05:34:57;;;;;;;3.75;2.60;;;512.10;2380.80;;;;;;5012494;28;20065;-54
2022/05/22 05:37:23;;;;;;;3.72;2.65;;;512.40;2380.80;;;;;;5012471;28;20029;-55
2022/05/22 05:39:49;;;;;;;4.22;2.50;;;512.50;2380.80;;;;;;5012536;28;20030;-53
2022/05/22 05:42:15;;;;;;;5.55;2.92;;;512.40;2380.80;;;;;;5012098;28;20022;-55
2022/05/22 05:44:40;;;;;;;6.15;3.08;;;512.30;2380.80;;;;;;5012208;28;20033;-54
2022/05/22 05:47:08;;;;;;;4.13;2.58;;;512.00;2380.80;;;;;;5012164;28;20476;-54
2022/05/22 05:49:36;;;;;;;4.32;2.80;;;487.10;2380.80;;;;;;5011978;28;20101;-54
2022/05/22 05:52:02;;;;;;;3.72;2.20;;;486.90;2380.80;;;;;;5012375;28;20030;-54
2022/05/22 05:54:28;;;;;;;4.32;2.55;;;486.90;2380.80;;;;;;5012047;28;20033;-54
2022/05/22 05:56:54;;;;;;;4.35;2.70;;;486.80;2380.80;;;;;;5011931;28;20496;-55
2022/05/22 05:59:20;;;;;;;5.30;3.00;;;486.80;2380.80;;;;;;5012130;28;20468;-55
2022/05/22 06:01:45;;;;;;;3.88;2.63;;;487.20;2380.80;;;;;;5011882;28;20371;-55
2022/05/22 06:04:11;;;;;;;4.93;3.00;;;512.00;2380.80;;;;;;5011897;28;20041;-54
2022/05/22 06:06:37;;;;;;;5.38;2.42;;;512.20;2380.80;;;;;;5011911;28;20025;-54
2022/05/22 06:09:03;;;;;;;4.85;2.75;;;512.60;2380.80;;;;;;5011983;28;20026;-54
2022/05/22 06:11:29;;;;;;;3.83;2.47;;;512.60;2380.80;;;;;;5011904;28;20046;-54
2022/05/22 06:13:56;;;;;;;6.18;2.67;;;512.60;2380.80;;;;;;5011487;28;20072;-54
2022/05/22 06:16:22;;;;;;;3.92;2.53;;;512.60;2380.80;;;;;;5011741;28;20022;-54
2022/05/22 06:18:48;;;;;;;5.38;2.90;;;512.40;2380.80;;;;;;5011794;28;20057;-54
2022/05/22 06:21:18;;;;;;;4.13;2.60;;;512.40;2380.80;;;;;;5011423;28;20022;-54
2022/05/22 06:23:44;;;;;;;3.83;2.88;;;512.40;2380.80;;;;;;5011352;28;20080;-53
2022/05/22 06:26:12;;;;;;;5.13;3.38;;;512.50;2380.80;;;;;;5011549;28;20119;-54
2022/05/22 06:28:38;;;;;;;4.60;2.92;;;512.50;2380.80;;;;;;5011561;28;20084;-54
2022/05/22 06:31:05;;;;;;;3.70;2.88;;;512.80;2380.80;;;;;;5016791;28;20021;-54
2022/05/22 06:33:32;;;;;;;3.65;2.83;;;537.60;2406.40;;;;;;5031006;28;20030;-53
2022/05/22 06:35:58;;;;;;;4.30;2.92;;;537.80;2406.40;;;;;;5031175;28;20033;-54
2022/05/22 06:41:10;;;;;;;4.70;3.13;;;537.90;2406.40;;;;;;5031388;28;20036;-54
2022/05/22 06:43:36;;;;;;;4.72;3.20;;;537.80;2406.40;;;;;;5030759;28;20029;-54
2022/05/22 06:46:03;;;;;;;4.60;3.17;;;537.90;2406.40;;;;;;5031055;28;20049;-54
2022/05/22 06:48:29;;;;;;;6.10;3.90;;;538.10;2406.40;;;;;;5030993;28;20017;-54
2022/05/22 06:50:55;;;;;;;5.32;3.20;;;538.30;2406.40;;;;;;5030813;28;20025;-53
2022/05/22 06:53:20;;;;;;;4.22;3.10;;;538.50;2406.40;;;;;;5030852;28;20391;-54
2022/05/22 06:55:47;;;;;;;3.85;2.92;;;563.20;2432.00;;;;;;5030528;28;20454;-54
2022/05/22 06:58:13;;;;;;;4.10;2.83;;;563.40;2432.00;;;;;;5026959;28;20033;-55
2022/05/22 07:00:38;;;;;;;4.13;2.80;;;563.50;2432.00;;;;;;5019155;28;20112;-54
2022/05/22 07:03:04;;;;;;;4.88;2.92;;;563.70;2432.00;;;;;;5030291;28;20108;-54
2022/05/22 07:05:30;;;;;;;4.68;3.10;;;564.10;2432.00;;;;;;5030472;28;20072;-54
2022/05/22 07:07:56;;;;;;;4.07;2.58;;;564.10;2432.00;;;;;;5030560;28;20037;-54
2022/05/22 07:11:38;;;;;;;4.28;3.10;;;564.10;2432.00;;;;;;5030604;28;20491;-55
2022/05/22 07:13:08;;;;;;;4.50;2.85;;;588.80;2432.00;;;;;;5030083;28;20076;-54
2022/05/22 07:15:33;;;;;;;7.07;3.70;;;589.10;2432.00;;;;;;5018181;28;20380;-52
2022/05/22 07:17:59;;;;;;;4.25;3.10;;;589.10;2432.00;;;;;;5025775;28;20168;-52
2022/05/22 07:20:25;;;;;;;4.43;3.25;;;589.30;2432.00;;;;;;5020034;28;20022;-53
2022/05/22 07:22:50;;;;;;;3.85;2.75;;;589.70;2432.00;;;;;;5030327;28;20531;-54
2022/05/22 07:25:16;;;;;;;5.45;3.05;;;614.80;2432.00;;;;;;5027196;28;20388;-54
2022/05/22 07:27:42;;;;;;;3.63;2.60;;;615.10;2432.00;;;;;;5021531;28;20044;-54
2022/05/22 07:30:08;;;;;;;3.85;2.65;;;640.10;2432.00;;;;;;5016521;28;20045;-54
2022/05/22 07:32:34;;;;;;;3.75;3.08;;;665.60;2432.00;;;;;;5017226;28;20384;-53
2022/05/22 07:35:01;;;;;;;3.25;2.63;;;666.30;2355.20;;;;;;5010400;28;20056;-54
2022/05/22 07:37:26;;;;;;;3.58;2.47;;;691.20;2355.20;;;;;;5010243;28;20030;-53
2022/05/22 07:39:52;;;;;;;7.68;2.78;;;691.30;2406.40;;;;;;5010375;28;20083;-55
2022/05/22 07:42:18;;;;;;;6.07;3.10;;;691.30;2329.60;;;;;;5010454;28;20434;-54
2022/05/22 07:44:43;;;;;;;2.88;2.05;;;691.30;2278.40;;;;;;5010220;28;20033;-55
2022/05/22 07:47:09;;;;;;;4.15;2.80;;;666.30;2176.00;;;;;;5010520;28;20117;-53
2022/05/22 07:52:21;;;;;;;3.60;2.75;;;666.30;2304.00;;;;;;5010771;28;20033;-54
2022/05/22 07:54:46;;;;;;;3.80;2.80;;;691.50;2252.80;;;;;;5010026;28;20099;-55
2022/05/22 07:57:13;;;;;;;3.53;2.60;;;691.80;2176.00;;;;;;5010165;28;20361;-54
2022/05/22 07:59:39;;;;;;;3.30;2.83;;;691.90;2150.40;;;;;;5010352;28;20037;-54
2022/05/22 08:02:07;;;;;;;6.63;4.50;;;717.00;1996.80;;;;;;5011151;28;20105;-55
2022/05/22 08:04:33;;;;;;;6.60;2.88;;;793.80;1740.80;;;;;;5029813;28;20026;-61
2022/05/22 08:06:59;;;;;;;6.95;3.05;;;819.30;1638.40;;;;;;5030069;28;20027;-64
2022/05/22 08:09:25;;;;;;;3.65;2.80;;;819.30;1638.40;;;;;;5032745;28;20072;-62
2022/05/22 08:11:52;;;;;;;3.53;2.70;;;793.70;1664.00;;;;;;5033919;28;20067;-62
2022/05/22 08:14:18;;;;;;;3.85;2.70;;;768.40;1689.60;;;;;;5033683;28;20069;-62
2022/05/22 08:16:44;;;;;;;3.05;2.75;;;768.60;1740.80;;;;;;5033638;28;20172;-62
2022/05/22 08:19:11;;;;;;;4.22;3.45;;;768.90;1715.20;;;;;;5033764;28;20029;-62
2022/05/22 08:21:37;;;;;;;4.45;3.90;;;794.30;1612.80;;;;;;5018011;28;20026;-65
2022/05/22 08:24:03;;;;;;;4.93;3.15;;;794.50;1638.40;;;;;;5013680;28;20040;-63
2022/05/22 08:26:29;;;;;;;4.30;3.13;;;794.20;1638.40;;;;;;5013801;28;20133;-62
2022/05/22 08:28:56;;;;;;;5.25;3.05;;;794.00;1638.40;;;;;;5013123;28;20040;-63
2022/05/22 08:31:22;;;;;;;4.75;3.97;;;794.20;1638.40;;;;;;5016958;28;20052;-64
2022/05/22 08:33:48;;;;;;;5.25;3.50;;;794.00;1638.40;;;;;;5033661;28;20083;-65
2022/05/22 08:36:14;;;;;;;3.63;3.00;;;794.00;1638.40;;;;;;5029615;28;20029;-65
2022/05/22 08:38:43;;;;;;;3.63;2.95;;;794.40;1612.80;;;;;;5022254;28;20068;-68
2022/05/22 08:41:10;;;;;;;3.35;2.80;;;794.50;1561.60;;;;;;5019045;28;20022;-67
2022/05/22 08:43:48;;;;;;;3.33;2.90;;;794.30;1484.80;;;;;;5017402;28;20381;-65
2022/05/22 08:46:31;;;;;;;3.47;2.60;;;794.10;1484.80;;;;;;5016678;28;20117;-62
2022/05/22 08:49:01;;;;;;;3.85;3.15;;;793.80;1536.00;;;;;;5013619;28;20113;-66
2022/05/22 08:51:40;;;;;;;4.78;3.03;;;768.90;1510.40;;;;;;5021046;28;20025;-66
2022/05/22 08:54:21;;;;;;;4.68;2.65;;;743.30;1484.80;;;;;;5021666;28;20293;-61
2022/05/22 08:59:34;;;;;;;3.75;2.95;;;768.80;1510.40;;;;;;5021057;28;20391;-63
2022/05/22 09:02:14;;;;;;;3.55;2.90;;;794.00;1510.40;;;;;;5021395;28;20596;-67
2022/05/22 09:04:45;;;;;;;4.95;3.17;;;794.10;1561.60;;;;;;5021113;28;20029;-61
2022/05/22 09:07:41;;;;;;;3.65;2.70;;;794.20;1510.40;;;;;;5015070;28;20025;-60
2022/05/22 09:10:13;;;;;;;4.03;2.50;;;794.30;1510.40;;;;;;5011314;28;20034;-62
2022/05/22 09:13:09;;;;;;;3.10;2.65;;;768.80;1484.80;;;;;;5010423;28;20490;-66
2022/05/22 09:15:57;;;;;;;2.97;2.67;;;742.70;1587.20;;;;;;4992927;28;20042;-66
2022/05/22 09:18:32;;;;;;;5.55;2.70;;;742.60;1587.20;;;;;;4993201;28;20031;-63
2022/05/22 09:21:14;;;;;;;4.57;2.72;;;742.60;1587.20;;;;;;4992462;28;20019;-66
2022/05/22 09:24:00;;;;;;;5.47;3.33;;;742.80;1587.20;;;;;;4975578;28;20046;-67
2022/05/22 09:26:37;;;;;;;4.13;2.72;;;742.60;1638.40;;;;;;4992860;28;20551;-67
2022/05/22 09:29:12;;;;;;;3.88;2.78;;;742.90;1612.80;;;;;;4992959;28;20030;-61
2022/05/22 09:31:47;;;;;;;4.93;2.80;;;743.00;1612.80;;;;;;4993130;28;20026;-66
2022/05/22 09:34:34;;;;;;;2.80;2.30;;;742.90;1689.60;;;;;;4992878;28;20038;-66
2022/05/22 09:37:03;;;;;;;3.25;2.67;;;742.50;1740.80;;;;;;4993004;28;20102;-63
2022/05/22 09:39:31;;;;;;;4.05;3.15;;;717.70;1689.60;;;;;;4992911;28;20031;-63
2022/05/22 09:42:41;;;;;;;3.85;3.10;;;717.70;1587.20;;;;;;4992735;28;20030;-66
2022/05/22 09:45:12;;;;;;;6.93;2.70;;;717.60;1740.80;;;;;;4992522;28;20034;-65
2022/05/22 09:47:44;;;;;;;5.10;3.00;;;717.40;1664.00;;;;;;4993018;28;20066;-62
2022/05/22 09:50:37;;;;;;;3.60;3.03;;;717.10;1689.60;;;;;;4993054;28;20049;-66
2022/05/22 09:53:28;;;;;;;4.33;2.53;;;716.90;1664.00;;;;;;4992388;28;20481;-65
2022/05/22 09:56:11;;;;;;;3.63;2.40;;;717.10;1715.20;;;;;;4991925;28;20276;-64
2022/05/22 09:59:05;;;;;;;3.33;2.40;;;716.80;1587.20;;;;;;4992359;28;20030;-68
2022/05/22 10:01:39;;;;;;;5.45;3.03;;;716.80;1587.20;;;;;;4992268;28;20129;-67
2022/05/22 10:04:29;;;;;;;3.00;2.53;;;717.10;1664.00;;;;;;4992428;28;20034;-67
2022/05/22 10:07:04;;;;;;;4.03;2.45;;;717.10;1638.40;;;;;;4992149;28;20030;-67
2022/05/22 10:09:47;;;;;;;5.97;2.35;;;717.00;1587.20;;;;;;4992244;28;20058;-67
2022/05/22 10:12:23;;;;;;;2.97;2.10;;;717.00;1689.60;;;;;;4991857;28;20030;-67
2022/05/22 10:15:10;;;;;;;3.53;2.22;;;717.10;1561.60;;;;;;4992298;28;20035;-68
2022/05/22 10:17:48;;;;;;;2.80;2.30;;;716.80;1561.60;;;;;;4991899;28;20065;-67
2022/05/22 10:20:51;;;;;;;4.03;2.35;;;692.10;1510.40;;;;;;4991917;28;20105;-66
2022/05/22 10:23:44;;;;;;;2.90;2.13;;;691.50;1536.00;;;;;;4991771;28;20080;-67
2022/05/22 10:26:21;;;;;;;2.95;2.47;;;691.20;1510.40;;;;;;4991948;28;20054;-66
2022/05/22 10:28:58;;;;;;;3.78;2.25;;;691.20;1561.60;;;;;;4991841;28;20122;-64
2022/05/22 10:31:48;;;;;;;2.72;2.15;;;691.60;1612.80;;;;;;4990946;28;20472;-63
2022/05/22 10:34:36;;;;;;;4.10;2.05;;;691.70;1484.80;;;;;;4991732;28;20088;-63
2022/05/22 10:37:31;;;;;;;2.83;2.10;;;691.80;1459.20;;;;;;4991794;28;20037;-66
2022/05/22 10:39:57;;;;;;;3.13;2.15;;;691.90;1510.40;;;;;;4991808;28;20040;-67
2022/05/22 10:42:45;;;;;;;5.38;2.35;;;691.90;1459.20;;;;;;4991360;28;20018;-64
2022/05/22 10:45:33;;;;;;;2.90;2.08;;;691.60;1408.00;;;;;;4991836;28;20484;-66
2022/05/22 10:48:12;;;;;;;5.00;2.28;;;692.00;1433.60;;;;;;4991586;28;20027;-64
2022/05/22 10:50:54;;;;;;;3.50;2.35;;;691.60;1459.20;;;;;;4991335;28;20031;-62
2022/05/22 10:53:54;;;;;;;2.60;1.90;;;691.70;1408.00;;;;;;4991489;28;20030;-63
2022/05/22 10:56:26;;;;;;;3.45;2.22;;;691.60;1408.00;;;;;;4991331;28;20448;-62
2022/05/22 10:58:58;;;;;;;2.80;2.10;;;691.80;1459.20;;;;;;4991447;28;20149;-65
2022/05/22 11:01:29;;;;;;;2.97;2.15;;;691.90;1484.80;;;;;;4991257;28;20146;-65
2022/05/22 11:04:33;;;;;;;2.83;2.22;;;716.90;1536.00;;;;;;4991323;28;20049;-65
2022/05/22 11:07:01;;;;;;;3.10;2.05;;;717.20;1382.40;;;;;;4931430;29;20036;-68
2022/05/22 11:09:30;;;;;;;9.45;2.00;;;717.20;1459.20;;;;;;4928523;29;20387;-66
2022/05/22 11:12:07;;;;;;;2.88;2.20;;;717.20;1433.60;;;;;;4929357;29;20054;-64
2022/05/22 11:14:35;;;;;;;3.55;1.70;;;717.60;1382.40;;;;;;4929457;29;20035;-62
2022/05/22 11:17:13;;;;;;;1.85;1.67;;;742.40;1356.80;;;;;;4930514;28;20036;-62
2022/05/22 11:19:41;;;;;;;2.42;1.75;;;742.50;1382.40;;;;;;4953995;28;20066;-61
2022/05/22 11:22:36;;;;;;;2.60;1.95;;;742.50;1305.60;;;;;;4955967;28;20035;-67
2022/05/22 11:25:01;;;;;;;2.83;1.88;;;717.70;1280.00;;;;;;4955342;28;20051;-63
2022/05/22 11:27:53;;;;;;;2.92;2.08;;;717.70;1382.40;;;;;;4959984;28;20119;-62
2022/05/22 11:30:19;;;;;;;2.80;2.08;;;717.20;1356.80;;;;;;4945705;28;20039;-61
2022/05/22 11:33:16;;;;;;;4.40;2.75;;;716.90;1459.20;;;;;;4941149;28;20409;-66
2022/05/22 11:35:53;;;;;;;4.03;2.10;;;692.10;1382.40;;;;;;4956364;28;20031;-62
2022/05/22 11:39:06;;;;;;;3.28;2.08;;;691.70;1408.00;;;;;;4947807;28;20136;-63
2022/05/22 11:41:44;;;;;;;2.75;2.20;;;691.80;1408.00;;;;;;4861300;29;20412;-65
2022/05/22 11:44:21;;;;;;;3.20;2.40;;;691.80;1459.20;;;;;;4912538;29;20040;-61
2022/05/22 11:47:15;;;;;;;3.67;2.30;;;691.90;1510.40;;;;;;4912464;29;20495;-66
2022/05/22 11:49:59;;;;;;;4.82;2.83;;;691.80;1484.80;;;;;;4913519;29;20060;-67
2022/05/22 11:52:55;;;;;;;4.82;2.90;;;691.60;1536.00;;;;;;4918883;29;20095;-65
2022/05/22 11:55:59;;;;;;;2.72;2.10;;;691.80;1510.40;;;;;;4920402;29;20132;-66
2022/05/22 11:58:44;;;;;;;2.95;2.13;;;692.10;1510.40;;;;;;4872734;29;20033;-61
2022/05/22 12:01:30;;;;;;;2.97;2.20;;;692.10;1484.80;;;;;;4873443;29;20033;-63
2022/05/22 12:04:18;;;;;;;4.53;2.47;;;692.10;1484.80;;;;;;4872572;29;20045;-62
2022/05/22 12:06:57;;;;;;;3.00;2.13;;;691.80;1484.80;;;;;;4869435;29;20032;-61
2022/05/22 12:09:40;;;;;;;2.80;2.22;;;691.90;1484.80;;;;;;4872188;29;20068;-63
2022/05/22 12:12:37;;;;;;;3.60;2.05;;;691.90;1510.40;;;;;;4871785;29;20052;-67
2022/05/22 12:15:18;;;;;;;3.97;2.28;;;691.90;1484.80;;;;;;4872047;29;20057;-63
2022/05/22 12:17:55;;;;;;;3.78;2.45;;;691.80;1510.40;;;;;;4891952;29;20080;-61
2022/05/22 12:20:20;;;;;;;4.60;2.25;;;692.00;1484.80;;;;;;4910023;29;20051;-64
2022/05/22 12:23:12;;;;;;;4.07;2.08;;;692.10;1484.80;;;;;;4904788;29;20522;-62
2022/05/22 12:25:53;;;;;;;2.85;2.10;;;692.10;1510.40;;;;;;4891939;29;20059;-63
2022/05/22 12:28:27;;;;;;;3.58;2.10;;;716.90;1510.40;;;;;;4906212;29;20040;-60
2022/05/22 12:30:57;;;;;;;4.05;2.50;;;717.30;1484.80;;;;;;4905763;29;20024;-69
2022/05/22 12:33:24;;;;;;;2.55;2.10;;;717.70;1484.80;;;;;;4908059;29;20043;-60
2022/05/22 12:35:52;;;;;;;2.90;2.00;;;742.50;1536.00;;;;;;5009608;28;20034;-60
2022/05/22 12:38:18;;;;;;;3.08;2.40;;;742.50;1459.20;;;;;;5012728;28;20022;-62
2022/05/22 12:40:46;;;;;;;3.55;2.38;;;742.60;1433.60;;;;;;5015760;28;20037;-61
2022/05/22 12:43:17;;;;;;;3.20;2.15;;;717.70;1408.00;;;;;;5016912;28;20053;-65
2022/05/22 12:45:46;;;;;;;3.38;2.05;;;717.20;1433.60;;;;;;5017712;28;20121;-65
2022/05/22 12:48:23;;;;;;;3.60;2.47;;;717.40;1510.40;;;;;;5016443;28;20057;-65